sensor_id;sensor_type;location;lat;lon;timestamp;temperature;humidity
4103;DHT22;2065;49.790;9.620;2023-05-17T00:00:37;13.80;47.60
4103;DHT22;2065;49.790;9.620;2023-05-17T00:03:04;13.80;47.40
4103;DHT22;2065;49.790;9.620;2023-05-17T00:05:31;13.90;47.00
4103;DHT22;2065;49.790;9.620;2023-05-17T00:07:58;13.90;47.50
4103;DHT22;2065;49.790;9.620;2023-05-17T00:10:25;13.90;47.50
4103;DHT22;2065;49.790;9.620;2023-05-17T00:12:52;13.80;47.50
4103;DHT22;2065;49.790;9.620;2023-05-17T00:15:20;13.80;48.20
4103;DHT22;2065;49.790;9.620;2023-05-17T00:17:47;13.80;47.30
4103;DHT22;2065;49.790;9.620;2023-05-17T00:20:14;13.80;47.70
4103;DHT22;2065;49.790;9.620;2023-05-17T00:22:41;13.60;47.70
4103;DHT22;2065;49.790;9.620;2023-05-17T00:25:10;13.50;48.10
4103;DHT22;2065;49.790;9.620;2023-05-17T00:27:37;13.50;48.50
4103;DHT22;2065;49.790;9.620;2023-05-17T00:30:05;13.50;48.80
4103;DHT22;2065;49.790;9.620;2023-05-17T00:32:37;13.60;48.60
4103;DHT22;2065;49.790;9.620;2023-05-17T00:35:04;13.60;48.70
4103;DHT22;2065;49.790;9.620;2023-05-17T00:37:31;13.50;49.20
4103;DHT22;2065;49.790;9.620;2023-05-17T00:39:58;13.50;49.40
4103;DHT22;2065;49.790;9.620;2023-05-17T00:42:25;13.60;49.40
4103;DHT22;2065;49.790;9.620;2023-05-17T00:44:52;13.60;49.50
4103;DHT22;2065;49.790;9.620;2023-05-17T00:47:19;13.60;49.40
4103;DHT22;2065;49.790;9.620;2023-05-17T00:49:48;13.70;49.00
4103;DHT22;2065;49.790;9.620;2023-05-17T00:52:16;13.60;48.70
4103;DHT22;2065;49.790;9.620;2023-05-17T00:54:43;13.40;48.50
4103;DHT22;2065;49.790;9.620;2023-05-17T00:57:10;13.40;48.80
4103;DHT22;2065;49.790;9.620;2023-05-17T00:59:38;13.40;49.00
4103;DHT22;2065;49.790;9.620;2023-05-17T01:02:05;13.40;48.30
4103;DHT22;2065;49.790;9.620;2023-05-17T01:04:33;13.30;49.10
4103;DHT22;2065;49.790;9.620;2023-05-17T01:07:02;13.30;48.90
4103;DHT22;2065;49.790;9.620;2023-05-17T01:09:29;13.30;48.90
4103;DHT22;2065;49.790;9.620;2023-05-17T01:12:05;13.20;49.20
4103;DHT22;2065;49.790;9.620;2023-05-17T01:14:44;13.20;49.20
4103;DHT22;2065;49.790;9.620;2023-05-17T01:17:16;13.20;49.40
4103;DHT22;2065;49.790;9.620;2023-05-17T01:19:56;13.20;49.80
4103;DHT22;2065;49.790;9.620;2023-05-17T01:22:40;13.20;50.90
4103;DHT22;2065;49.790;9.620;2023-05-17T01:28:05;13.20;50.50
4103;DHT22;2065;49.790;9.620;2023-05-17T01:30:34;13.20;50.60
4103;DHT22;2065;49.790;9.620;2023-05-17T01:33:03;13.20;50.40
4103;DHT22;2065;49.790;9.620;2023-05-17T01:35:30;13.10;50.20
4103;DHT22;2065;49.790;9.620;2023-05-17T01:37:57;13.10;50.20
4103;DHT22;2065;49.790;9.620;2023-05-17T01:40:25;13.00;50.20
4103;DHT22;2065;49.790;9.620;2023-05-17T01:42:55;12.90;50.20
4103;DHT22;2065;49.790;9.620;2023-05-17T01:45:29;12.90;50.10
4103;DHT22;2065;49.790;9.620;2023-05-17T01:48:05;12.80;50.50
4103;DHT22;2065;49.790;9.620;2023-05-17T01:50:37;12.70;50.40
4103;DHT22;2065;49.790;9.620;2023-05-17T01:53:09;12.70;50.70
4103;DHT22;2065;49.790;9.620;2023-05-17T01:55:43;12.80;51.00
4103;DHT22;2065;49.790;9.620;2023-05-17T01:58:13;12.80;51.00
4103;DHT22;2065;49.790;9.620;2023-05-17T02:00:44;12.80;50.90
4103;DHT22;2065;49.790;9.620;2023-05-17T02:03:13;12.80;51.10
4103;DHT22;2065;49.790;9.620;2023-05-17T02:05:42;12.70;51.20
4103;DHT22;2065;49.790;9.620;2023-05-17T02:08:09;12.70;50.40
4103;DHT22;2065;49.790;9.620;2023-05-17T02:10:36;12.70;50.40
4103;DHT22;2065;49.790;9.620;2023-05-17T02:13:04;12.70;50.80
4103;DHT22;2065;49.790;9.620;2023-05-17T02:15:31;12.50;50.90
4103;DHT22;2065;49.790;9.620;2023-05-17T02:17:59;12.50;51.30
4103;DHT22;2065;49.790;9.620;2023-05-17T02:20:26;12.50;51.10
4103;DHT22;2065;49.790;9.620;2023-05-17T02:22:53;12.50;50.90
4103;DHT22;2065;49.790;9.620;2023-05-17T02:25:20;12.50;50.60
4103;DHT22;2065;49.790;9.620;2023-05-17T02:27:47;12.40;50.90
4103;DHT22;2065;49.790;9.620;2023-05-17T02:30:14;12.40;50.60
4103;DHT22;2065;49.790;9.620;2023-05-17T02:32:42;12.40;51.60
4103;DHT22;2065;49.790;9.620;2023-05-17T02:35:10;12.40;51.20
4103;DHT22;2065;49.790;9.620;2023-05-17T02:37:37;12.50;51.20
4103;DHT22;2065;49.790;9.620;2023-05-17T02:40:06;12.40;50.90
4103;DHT22;2065;49.790;9.620;2023-05-17T02:42:34;12.40;51.10
4103;DHT22;2065;49.790;9.620;2023-05-17T02:45:01;12.40;51.20
4103;DHT22;2065;49.790;9.620;2023-05-17T02:47:29;12.40;51.20
4103;DHT22;2065;49.790;9.620;2023-05-17T02:49:56;12.40;51.20
4103;DHT22;2065;49.790;9.620;2023-05-17T02:52:25;12.40;51.10
4103;DHT22;2065;49.790;9.620;2023-05-17T02:54:52;12.40;51.20
4103;DHT22;2065;49.790;9.620;2023-05-17T02:57:19;12.30;51.20
4103;DHT22;2065;49.790;9.620;2023-05-17T02:59:46;12.30;50.70
4103;DHT22;2065;49.790;9.620;2023-05-17T03:02:14;12.20;51.30
4103;DHT22;2065;49.790;9.620;2023-05-17T03:04:40;12.10;51.50
4103;DHT22;2065;49.790;9.620;2023-05-17T03:07:08;12.10;51.30
4103;DHT22;2065;49.790;9.620;2023-05-17T03:09:37;12.10;51.50
4103;DHT22;2065;49.790;9.620;2023-05-17T03:12:05;12.10;51.10
4103;DHT22;2065;49.790;9.620;2023-05-17T03:14:34;12.10;51.30
4103;DHT22;2065;49.790;9.620;2023-05-17T03:17:01;12.10;51.10
4103;DHT22;2065;49.790;9.620;2023-05-17T03:19:29;12.10;51.00
4103;DHT22;2065;49.790;9.620;2023-05-17T03:21:56;12.10;51.00
4103;DHT22;2065;49.790;9.620;2023-05-17T03:24:23;12.10;51.20
4103;DHT22;2065;49.790;9.620;2023-05-17T03:26:51;12.00;50.10
4103;DHT22;2065;49.790;9.620;2023-05-17T03:29:18;11.90;50.50
4103;DHT22;2065;49.790;9.620;2023-05-17T03:31:46;11.70;51.00
4103;DHT22;2065;49.790;9.620;2023-05-17T03:34:14;11.70;51.30
4103;DHT22;2065;49.790;9.620;2023-05-17T03:36:41;11.60;52.00
4103;DHT22;2065;49.790;9.620;2023-05-17T03:39:09;11.70;52.50
4103;DHT22;2065;49.790;9.620;2023-05-17T03:41:38;11.70;52.50
4103;DHT22;2065;49.790;9.620;2023-05-17T03:44:08;11.40;53.00
4103;DHT22;2065;49.790;9.620;2023-05-17T03:46:35;11.10;53.70
4103;DHT22;2065;49.790;9.620;2023-05-17T03:49:03;11.30;53.70
4103;DHT22;2065;49.790;9.620;2023-05-17T03:51:32;11.50;53.40
4103;DHT22;2065;49.790;9.620;2023-05-17T03:54:00;11.60;52.90
4103;DHT22;2065;49.790;9.620;2023-05-17T03:56:29;11.60;52.70
4103;DHT22;2065;49.790;9.620;2023-05-17T03:58:56;11.50;52.50
4103;DHT22;2065;49.790;9.620;2023-05-17T04:01:24;11.40;52.90
4103;DHT22;2065;49.790;9.620;2023-05-17T04:03:52;11.50;52.90
4103;DHT22;2065;49.790;9.620;2023-05-17T04:06:20;11.70;52.90
4103;DHT22;2065;49.790;9.620;2023-05-17T04:08:48;11.70;52.50
4103;DHT22;2065;49.790;9.620;2023-05-17T04:11:15;11.70;52.40
4103;DHT22;2065;49.790;9.620;2023-05-17T04:13:48;11.80;52.20
4103;DHT22;2065;49.790;9.620;2023-05-17T04:16:15;11.80;52.30
4103;DHT22;2065;49.790;9.620;2023-05-17T04:18:43;11.80;52.20
4103;DHT22;2065;49.790;9.620;2023-05-17T04:21:11;11.80;52.70
4103;DHT22;2065;49.790;9.620;2023-05-17T04:23:39;11.70;52.70
4103;DHT22;2065;49.790;9.620;2023-05-17T04:26:08;11.70;52.80
4103;DHT22;2065;49.790;9.620;2023-05-17T04:28:38;11.70;53.00
4103;DHT22;2065;49.790;9.620;2023-05-17T04:31:06;11.70;53.00
4103;DHT22;2065;49.790;9.620;2023-05-17T04:33:34;11.80;52.90
4103;DHT22;2065;49.790;9.620;2023-05-17T04:36:02;11.90;53.20
4103;DHT22;2065;49.790;9.620;2023-05-17T04:38:31;11.90;53.80
4103;DHT22;2065;49.790;9.620;2023-05-17T04:41:01;11.90;53.80
4103;DHT22;2065;49.790;9.620;2023-05-17T04:43:31;11.90;54.20
4103;DHT22;2065;49.790;9.620;2023-05-17T04:45:59;11.70;55.00
4103;DHT22;2065;49.790;9.620;2023-05-17T04:48:30;11.70;55.40
4103;DHT22;2065;49.790;9.620;2023-05-17T04:50:59;11.80;55.00
4103;DHT22;2065;49.790;9.620;2023-05-17T04:53:28;11.80;54.90
4103;DHT22;2065;49.790;9.620;2023-05-17T04:55:55;11.90;55.00
4103;DHT22;2065;49.790;9.620;2023-05-17T04:58:23;12.00;54.70
4103;DHT22;2065;49.790;9.620;2023-05-17T05:00:53;11.90;54.80
4103;DHT22;2065;49.790;9.620;2023-05-17T05:03:21;11.90;55.10
4103;DHT22;2065;49.790;9.620;2023-05-17T05:05:49;12.00;55.20
4103;DHT22;2065;49.790;9.620;2023-05-17T05:08:16;12.10;55.20
4103;DHT22;2065;49.790;9.620;2023-05-17T05:10:46;12.10;55.00
4103;DHT22;2065;49.790;9.620;2023-05-17T05:13:15;12.20;55.00
4103;DHT22;2065;49.790;9.620;2023-05-17T05:15:42;12.30;54.80
4103;DHT22;2065;49.790;9.620;2023-05-17T05:18:09;12.30;54.70
4103;DHT22;2065;49.790;9.620;2023-05-17T05:20:36;12.30;54.90
4103;DHT22;2065;49.790;9.620;2023-05-17T05:23:04;12.30;55.30
4103;DHT22;2065;49.790;9.620;2023-05-17T05:25:33;12.10;56.40
4103;DHT22;2065;49.790;9.620;2023-05-17T05:28:02;12.00;56.80
4103;DHT22;2065;49.790;9.620;2023-05-17T05:30:31;12.20;56.50
4103;DHT22;2065;49.790;9.620;2023-05-17T05:32:58;12.30;56.80
4103;DHT22;2065;49.790;9.620;2023-05-17T05:35:25;12.30;56.90
4103;DHT22;2065;49.790;9.620;2023-05-17T05:37:56;12.40;56.50
4103;DHT22;2065;49.790;9.620;2023-05-17T05:40:23;12.40;56.60
4103;DHT22;2065;49.790;9.620;2023-05-17T05:42:50;12.20;57.10
4103;DHT22;2065;49.790;9.620;2023-05-17T05:45:19;12.40;56.90
4103;DHT22;2065;49.790;9.620;2023-05-17T05:47:47;12.60;56.20
4103;DHT22;2065;49.790;9.620;2023-05-17T05:50:14;12.60;56.60
4103;DHT22;2065;49.790;9.620;2023-05-17T05:52:43;12.50;57.10
4103;DHT22;2065;49.790;9.620;2023-05-17T05:55:10;12.50;57.20
4103;DHT22;2065;49.790;9.620;2023-05-17T05:57:37;12.50;56.80
4103;DHT22;2065;49.790;9.620;2023-05-17T06:00:05;12.60;56.80
4103;DHT22;2065;49.790;9.620;2023-05-17T06:02:40;12.70;56.20
4103;DHT22;2065;49.790;9.620;2023-05-17T06:05:07;13.10;56.10
4103;DHT22;2065;49.790;9.620;2023-05-17T06:07:34;13.40;55.10
4103;DHT22;2065;49.790;9.620;2023-05-17T06:10:01;13.50;54.60
4103;DHT22;2065;49.790;9.620;2023-05-17T06:12:28;13.70;54.30
4103;DHT22;2065;49.790;9.620;2023-05-17T06:14:55;13.80;54.20
4103;DHT22;2065;49.790;9.620;2023-05-17T06:17:22;13.70;54.20
4103;DHT22;2065;49.790;9.620;2023-05-17T06:19:50;13.90;54.70
4103;DHT22;2065;49.790;9.620;2023-05-17T06:22:17;14.00;54.30
4103;DHT22;2065;49.790;9.620;2023-05-17T06:24:44;14.10;53.20
4103;DHT22;2065;49.790;9.620;2023-05-17T06:27:11;14.20;54.00
4103;DHT22;2065;49.790;9.620;2023-05-17T06:29:38;14.40;54.20
4103;DHT22;2065;49.790;9.620;2023-05-17T06:32:06;14.50;52.60
4103;DHT22;2065;49.790;9.620;2023-05-17T06:34:33;14.70;53.20
4103;DHT22;2065;49.790;9.620;2023-05-17T06:37:01;14.70;52.40
4103;DHT22;2065;49.790;9.620;2023-05-17T06:39:28;14.90;53.00
4103;DHT22;2065;49.790;9.620;2023-05-17T06:41:55;15.00;51.80
4103;DHT22;2065;49.790;9.620;2023-05-17T06:44:22;15.10;52.30
4103;DHT22;2065;49.790;9.620;2023-05-17T06:46:49;15.20;52.00
4103;DHT22;2065;49.790;9.620;2023-05-17T06:49:16;15.30;51.40
4103;DHT22;2065;49.790;9.620;2023-05-17T06:51:43;15.30;50.50
4103;DHT22;2065;49.790;9.620;2023-05-17T06:54:11;15.40;50.00
4103;DHT22;2065;49.790;9.620;2023-05-17T06:56:38;15.50;49.50
4103;DHT22;2065;49.790;9.620;2023-05-17T06:59:05;15.50;49.00
4103;DHT22;2065;49.790;9.620;2023-05-17T07:01:32;15.60;49.90
4103;DHT22;2065;49.790;9.620;2023-05-17T07:03:59;15.60;50.10
4103;DHT22;2065;49.790;9.620;2023-05-17T07:06:26;15.60;48.40
4103;DHT22;2065;49.790;9.620;2023-05-17T07:08:53;15.30;48.60
4103;DHT22;2065;49.790;9.620;2023-05-17T07:11:21;15.10;48.80
4103;DHT22;2065;49.790;9.620;2023-05-17T07:13:48;15.10;50.00
4103;DHT22;2065;49.790;9.620;2023-05-17T07:16:15;15.30;50.00
4103;DHT22;2065;49.790;9.620;2023-05-17T07:18:42;15.50;49.30
4103;DHT22;2065;49.790;9.620;2023-05-17T07:21:09;15.60;49.00
4103;DHT22;2065;49.790;9.620;2023-05-17T07:23:37;15.70;47.60
4103;DHT22;2065;49.790;9.620;2023-05-17T07:26:05;15.80;47.20
4103;DHT22;2065;49.790;9.620;2023-05-17T07:28:33;15.90;46.80
4103;DHT22;2065;49.790;9.620;2023-05-17T07:31:00;15.90;46.80
4103;DHT22;2065;49.790;9.620;2023-05-17T07:33:27;15.90;46.50
4103;DHT22;2065;49.790;9.620;2023-05-17T07:35:54;15.90;47.10
4103;DHT22;2065;49.790;9.620;2023-05-17T07:38:21;15.90;45.90
4103;DHT22;2065;49.790;9.620;2023-05-17T07:40:48;15.80;46.40
4103;DHT22;2065;49.790;9.620;2023-05-17T07:43:15;16.10;47.00
4103;DHT22;2065;49.790;9.620;2023-05-17T07:45:43;16.10;46.10
4103;DHT22;2065;49.790;9.620;2023-05-17T07:48:10;16.20;46.70
4103;DHT22;2065;49.790;9.620;2023-05-17T07:50:37;15.90;45.90
4103;DHT22;2065;49.790;9.620;2023-05-17T07:53:05;16.00;46.00
4103;DHT22;2065;49.790;9.620;2023-05-17T07:55:32;16.00;45.60
4103;DHT22;2065;49.790;9.620;2023-05-17T07:57:59;15.80;46.40
4103;DHT22;2065;49.790;9.620;2023-05-17T08:00:26;15.90;46.30
4103;DHT22;2065;49.790;9.620;2023-05-17T08:02:55;16.00;46.30
4103;DHT22;2065;49.790;9.620;2023-05-17T08:05:22;16.00;47.10
4103;DHT22;2065;49.790;9.620;2023-05-17T08:07:49;16.10;46.40
4103;DHT22;2065;49.790;9.620;2023-05-17T08:10:17;15.90;46.60
4103;DHT22;2065;49.790;9.620;2023-05-17T08:12:44;15.70;46.70
4103;DHT22;2065;49.790;9.620;2023-05-17T08:15:11;15.70;47.10
4103;DHT22;2065;49.790;9.620;2023-05-17T08:17:38;15.70;47.10
4103;DHT22;2065;49.790;9.620;2023-05-17T08:20:08;15.60;47.50
4103;DHT22;2065;49.790;9.620;2023-05-17T08:22:35;15.50;47.00
4103;DHT22;2065;49.790;9.620;2023-05-17T08:25:02;15.50;47.80
4103;DHT22;2065;49.790;9.620;2023-05-17T08:27:30;15.50;48.30
4103;DHT22;2065;49.790;9.620;2023-05-17T08:29:57;15.50;48.30
4103;DHT22;2065;49.790;9.620;2023-05-17T08:32:24;15.60;47.70
4103;DHT22;2065;49.790;9.620;2023-05-17T08:34:51;15.80;47.90
4103;DHT22;2065;49.790;9.620;2023-05-17T08:37:20;16.10;48.30
4103;DHT22;2065;49.790;9.620;2023-05-17T08:39:47;16.30;47.30
4103;DHT22;2065;49.790;9.620;2023-05-17T08:42:21;16.40;46.20
4103;DHT22;2065;49.790;9.620;2023-05-17T08:44:49;16.40;45.40
4103;DHT22;2065;49.790;9.620;2023-05-17T08:47:18;16.20;46.30
4103;DHT22;2065;49.790;9.620;2023-05-17T08:49:55;16.30;46.50
4103;DHT22;2065;49.790;9.620;2023-05-17T08:52:28;16.30;45.90
4103;DHT22;2065;49.790;9.620;2023-05-17T08:54:57;16.30;46.90
4103;DHT22;2065;49.790;9.620;2023-05-17T08:57:27;16.40;46.90
4103;DHT22;2065;49.790;9.620;2023-05-17T08:59:55;16.30;46.80
4103;DHT22;2065;49.790;9.620;2023-05-17T09:02:24;16.60;47.40
4103;DHT22;2065;49.790;9.620;2023-05-17T09:04:52;16.70;44.50
4103;DHT22;2065;49.790;9.620;2023-05-17T09:07:21;16.60;45.60
4103;DHT22;2065;49.790;9.620;2023-05-17T09:09:51;16.50;45.60
4103;DHT22;2065;49.790;9.620;2023-05-17T09:12:18;16.70;44.00
4103;DHT22;2065;49.790;9.620;2023-05-17T09:14:46;16.40;45.00
4103;DHT22;2065;49.790;9.620;2023-05-17T09:17:14;16.40;45.10
4103;DHT22;2065;49.790;9.620;2023-05-17T09:19:42;16.50;45.90
4103;DHT22;2065;49.790;9.620;2023-05-17T09:22:11;16.60;43.60
4103;DHT22;2065;49.790;9.620;2023-05-17T09:24:40;16.60;44.90
4103;DHT22;2065;49.790;9.620;2023-05-17T09:27:10;16.70;44.40
4103;DHT22;2065;49.790;9.620;2023-05-17T09:29:40;16.70;45.00
4103;DHT22;2065;49.790;9.620;2023-05-17T09:32:11;16.60;43.00
4103;DHT22;2065;49.790;9.620;2023-05-17T09:34:40;16.70;43.80
4103;DHT22;2065;49.790;9.620;2023-05-17T09:37:12;17.00;44.60
4103;DHT22;2065;49.790;9.620;2023-05-17T09:39:41;17.00;43.00
4103;DHT22;2065;49.790;9.620;2023-05-17T09:42:10;17.00;44.10
4103;DHT22;2065;49.790;9.620;2023-05-17T09:44:55;17.10;44.30
4103;DHT22;2065;49.790;9.620;2023-05-17T09:47:24;17.10;44.00
4103;DHT22;2065;49.790;9.620;2023-05-17T09:49:52;17.00;42.50
4103;DHT22;2065;49.790;9.620;2023-05-17T09:52:21;16.80;43.40
4103;DHT22;2065;49.790;9.620;2023-05-17T09:54:52;16.70;43.90
4103;DHT22;2065;49.790;9.620;2023-05-17T09:57:21;16.30;44.20
4103;DHT22;2065;49.790;9.620;2023-05-17T09:59:48;16.30;44.20
4103;DHT22;2065;49.790;9.620;2023-05-17T10:02:20;16.10;44.90
4103;DHT22;2065;49.790;9.620;2023-05-17T10:04:49;16.10;44.10
4103;DHT22;2065;49.790;9.620;2023-05-17T10:07:20;16.20;44.00
4103;DHT22;2065;49.790;9.620;2023-05-17T10:09:47;16.30;44.30
4103;DHT22;2065;49.790;9.620;2023-05-17T10:12:16;16.40;44.20
4103;DHT22;2065;49.790;9.620;2023-05-17T10:14:46;16.40;44.80
4103;DHT22;2065;49.790;9.620;2023-05-17T10:17:13;16.50;44.30
4103;DHT22;2065;49.790;9.620;2023-05-17T10:19:41;16.40;44.30
4103;DHT22;2065;49.790;9.620;2023-05-17T10:22:09;16.10;44.00
4103;DHT22;2065;49.790;9.620;2023-05-17T10:24:37;16.20;44.70
4103;DHT22;2065;49.790;9.620;2023-05-17T10:27:05;16.30;43.80
4103;DHT22;2065;49.790;9.620;2023-05-17T10:29:33;16.40;43.60
4103;DHT22;2065;49.790;9.620;2023-05-17T10:32:05;16.70;44.50
4103;DHT22;2065;49.790;9.620;2023-05-17T10:34:33;16.80;42.30
4103;DHT22;2065;49.790;9.620;2023-05-17T10:37:02;17.00;43.80
4103;DHT22;2065;49.790;9.620;2023-05-17T10:39:29;17.20;43.90
4103;DHT22;2065;49.790;9.620;2023-05-17T10:42:02;17.20;43.00
4103;DHT22;2065;49.790;9.620;2023-05-17T10:44:31;17.20;41.80
4103;DHT22;2065;49.790;9.620;2023-05-17T10:46:58;17.10;40.90
4103;DHT22;2065;49.790;9.620;2023-05-17T10:49:29;17.00;41.60
4103;DHT22;2065;49.790;9.620;2023-05-17T10:51:56;16.90;41.20
4103;DHT22;2065;49.790;9.620;2023-05-17T10:54:33;17.20;42.10
4103;DHT22;2065;49.790;9.620;2023-05-17T10:57:03;17.40;40.70
4103;DHT22;2065;49.790;9.620;2023-05-17T10:59:31;17.50;40.10
4103;DHT22;2065;49.790;9.620;2023-05-17T11:02:00;17.70;40.40
4103;DHT22;2065;49.790;9.620;2023-05-17T11:04:34;17.70;40.80
4103;DHT22;2065;49.790;9.620;2023-05-17T11:07:22;17.80;40.20
4103;DHT22;2065;49.790;9.620;2023-05-17T11:09:53;17.90;40.00
4103;DHT22;2065;49.790;9.620;2023-05-17T11:12:28;17.60;39.80
4103;DHT22;2065;49.790;9.620;2023-05-17T11:14:56;17.70;40.10
4103;DHT22;2065;49.790;9.620;2023-05-17T11:17:24;17.70;40.50
4103;DHT22;2065;49.790;9.620;2023-05-17T11:20:00;17.70;40.20
4103;DHT22;2065;49.790;9.620;2023-05-17T11:22:33;17.60;40.40
4103;DHT22;2065;49.790;9.620;2023-05-17T11:25:05;17.50;39.70
4103;DHT22;2065;49.790;9.620;2023-05-17T11:27:38;17.60;40.20
4103;DHT22;2065;49.790;9.620;2023-05-17T11:30:15;17.60;39.50
4103;DHT22;2065;49.790;9.620;2023-05-17T11:32:46;17.70;39.80
4103;DHT22;2065;49.790;9.620;2023-05-17T11:35:16;17.80;38.70
4103;DHT22;2065;49.790;9.620;2023-05-17T11:37:43;17.70;38.50
4103;DHT22;2065;49.790;9.620;2023-05-17T11:40:12;17.80;38.80
4103;DHT22;2065;49.790;9.620;2023-05-17T11:42:40;18.20;39.30
4103;DHT22;2065;49.790;9.620;2023-05-17T11:45:07;18.50;37.90
4103;DHT22;2065;49.790;9.620;2023-05-17T11:47:38;18.70;38.00
4103;DHT22;2065;49.790;9.620;2023-05-17T11:50:07;18.80;37.00
4103;DHT22;2065;49.790;9.620;2023-05-17T11:52:39;18.70;37.50
4103;DHT22;2065;49.790;9.620;2023-05-17T11:55:07;18.60;36.60
4103;DHT22;2065;49.790;9.620;2023-05-17T11:57:37;18.40;36.50
4103;DHT22;2065;49.790;9.620;2023-05-17T12:00:05;18.50;37.70
4103;DHT22;2065;49.790;9.620;2023-05-17T12:02:39;18.40;36.70
4103;DHT22;2065;49.790;9.620;2023-05-17T12:05:07;18.60;37.70
4103;DHT22;2065;49.790;9.620;2023-05-17T12:07:34;18.90;36.40
4103;DHT22;2065;49.790;9.620;2023-05-17T12:10:04;19.00;37.20
4103;DHT22;2065;49.790;9.620;2023-05-17T12:12:31;19.40;36.50
4103;DHT22;2065;49.790;9.620;2023-05-17T12:14:58;19.50;36.20
4103;DHT22;2065;49.790;9.620;2023-05-17T12:17:32;19.80;36.50
4103;DHT22;2065;49.790;9.620;2023-05-17T12:20:08;20.00;35.50
4103;DHT22;2065;49.790;9.620;2023-05-17T12:22:51;20.20;35.40
4103;DHT22;2065;49.790;9.620;2023-05-17T12:25:20;19.90;33.10
4103;DHT22;2065;49.790;9.620;2023-05-17T12:27:50;19.60;34.70
4103;DHT22;2065;49.790;9.620;2023-05-17T12:30:17;19.50;34.50
4103;DHT22;2065;49.790;9.620;2023-05-17T12:32:45;19.50;33.90
4103;DHT22;2065;49.790;9.620;2023-05-17T12:35:12;19.70;33.70
4103;DHT22;2065;49.790;9.620;2023-05-17T12:37:40;19.90;33.50
4103;DHT22;2065;49.790;9.620;2023-05-17T12:40:08;20.20;33.10
4103;DHT22;2065;49.790;9.620;2023-05-17T12:42:38;20.40;31.70
4103;DHT22;2065;49.790;9.620;2023-05-17T12:45:09;20.40;31.40
4103;DHT22;2065;49.790;9.620;2023-05-17T12:47:38;20.40;32.40
4103;DHT22;2065;49.790;9.620;2023-05-17T12:50:05;21.10;33.60
4103;DHT22;2065;49.790;9.620;2023-05-17T12:52:33;21.30;31.10
4103;DHT22;2065;49.790;9.620;2023-05-17T12:55:02;21.30;32.30
4103;DHT22;2065;49.790;9.620;2023-05-17T12:57:30;21.40;30.40
4103;DHT22;2065;49.790;9.620;2023-05-17T13:00:05;20.90;29.90
4103;DHT22;2065;49.790;9.620;2023-05-17T13:02:33;20.70;30.90
4103;DHT22;2065;49.790;9.620;2023-05-17T13:05:13;20.30;30.00
4103;DHT22;2065;49.790;9.620;2023-05-17T13:07:40;20.20;32.00
4103;DHT22;2065;49.790;9.620;2023-05-17T13:10:19;20.30;33.70
4103;DHT22;2065;49.790;9.620;2023-05-17T13:12:54;19.90;32.40
4103;DHT22;2065;49.790;9.620;2023-05-17T13:15:27;19.50;32.20
4103;DHT22;2065;49.790;9.620;2023-05-17T13:17:55;19.50;33.60
4103;DHT22;2065;49.790;9.620;2023-05-17T13:20:22;19.70;33.50
4103;DHT22;2065;49.790;9.620;2023-05-17T13:22:49;20.10;33.50
4103;DHT22;2065;49.790;9.620;2023-05-17T13:25:16;20.50;32.80
4103;DHT22;2065;49.790;9.620;2023-05-17T13:27:44;20.80;32.00
4103;DHT22;2065;49.790;9.620;2023-05-17T13:30:15;20.50;32.50
4103;DHT22;2065;49.790;9.620;2023-05-17T13:32:43;20.80;31.70
4103;DHT22;2065;49.790;9.620;2023-05-17T13:35:12;20.80;30.10
4103;DHT22;2065;49.790;9.620;2023-05-17T13:37:39;20.90;30.80
4103;DHT22;2065;49.790;9.620;2023-05-17T13:40:07;21.00;30.70
4103;DHT22;2065;49.790;9.620;2023-05-17T13:42:34;21.00;30.10
4103;DHT22;2065;49.790;9.620;2023-05-17T13:45:01;21.10;30.60
4103;DHT22;2065;49.790;9.620;2023-05-17T13:47:29;21.10;30.20
4103;DHT22;2065;49.790;9.620;2023-05-17T13:49:58;21.20;30.30
4103;DHT22;2065;49.790;9.620;2023-05-17T13:52:26;21.20;30.50
4103;DHT22;2065;49.790;9.620;2023-05-17T13:54:53;21.20;30.60
4103;DHT22;2065;49.790;9.620;2023-05-17T13:57:20;21.30;31.70
4103;DHT22;2065;49.790;9.620;2023-05-17T13:59:47;21.50;30.20
4103;DHT22;2065;49.790;9.620;2023-05-17T14:02:14;22.00;31.50
4103;DHT22;2065;49.790;9.620;2023-05-17T14:04:41;22.30;28.70
4103;DHT22;2065;49.790;9.620;2023-05-17T14:07:10;22.20;29.90
4103;DHT22;2065;49.790;9.620;2023-05-17T14:09:37;22.00;30.20
4103;DHT22;2065;49.790;9.620;2023-05-17T14:12:05;22.20;29.90
4103;DHT22;2065;49.790;9.620;2023-05-17T14:14:32;22.30;29.10
4103;DHT22;2065;49.790;9.620;2023-05-17T14:16:59;22.20;29.00
4103;DHT22;2065;49.790;9.620;2023-05-17T14:19:27;22.20;30.10
4103;DHT22;2065;49.790;9.620;2023-05-17T14:21:53;22.20;29.20
4103;DHT22;2065;49.790;9.620;2023-05-17T14:24:22;21.80;29.50
4103;DHT22;2065;49.790;9.620;2023-05-17T14:26:49;21.90;29.10
4103;DHT22;2065;49.790;9.620;2023-05-17T14:29:16;21.70;29.70
4103;DHT22;2065;49.790;9.620;2023-05-17T14:31:43;21.90;30.00
4103;DHT22;2065;49.790;9.620;2023-05-17T14:34:10;22.00;30.50
4103;DHT22;2065;49.790;9.620;2023-05-17T14:36:37;22.10;29.90
4103;DHT22;2065;49.790;9.620;2023-05-17T14:39:04;22.10;28.80
4103;DHT22;2065;49.790;9.620;2023-05-17T14:41:32;22.20;30.20
4103;DHT22;2065;49.790;9.620;2023-05-17T14:43:59;22.10;28.90
4103;DHT22;2065;49.790;9.620;2023-05-17T14:46:26;22.20;28.40
4103;DHT22;2065;49.790;9.620;2023-05-17T14:48:53;22.10;28.10
4103;DHT22;2065;49.790;9.620;2023-05-17T14:51:21;21.90;28.90
4103;DHT22;2065;49.790;9.620;2023-05-17T14:53:48;21.80;28.60
4103;DHT22;2065;49.790;9.620;2023-05-17T14:56:16;21.90;29.50
4103;DHT22;2065;49.790;9.620;2023-05-17T14:58:44;22.10;29.90
4103;DHT22;2065;49.790;9.620;2023-05-17T15:01:11;22.10;29.10
4103;DHT22;2065;49.790;9.620;2023-05-17T15:03:40;22.10;28.80
4103;DHT22;2065;49.790;9.620;2023-05-17T15:06:07;21.80;28.50
4103;DHT22;2065;49.790;9.620;2023-05-17T15:08:34;21.80;28.80
4103;DHT22;2065;49.790;9.620;2023-05-17T15:11:01;21.70;28.30
4103;DHT22;2065;49.790;9.620;2023-05-17T15:13:28;21.60;28.20
4103;DHT22;2065;49.790;9.620;2023-05-17T15:15:56;21.50;28.40
4103;DHT22;2065;49.790;9.620;2023-05-17T15:18:23;21.70;28.90
4103;DHT22;2065;49.790;9.620;2023-05-17T15:20:51;21.30;28.80
4103;DHT22;2065;49.790;9.620;2023-05-17T15:23:17;21.00;29.40
4103;DHT22;2065;49.790;9.620;2023-05-17T15:25:44;21.20;29.70
4103;DHT22;2065;49.790;9.620;2023-05-17T15:28:12;21.30;29.90
4103;DHT22;2065;49.790;9.620;2023-05-17T15:30:39;21.50;30.30
4103;DHT22;2065;49.790;9.620;2023-05-17T15:33:08;21.50;28.80
4103;DHT22;2065;49.790;9.620;2023-05-17T15:35:35;21.50;29.10
4103;DHT22;2065;49.790;9.620;2023-05-17T15:38:03;21.70;29.30
4103;DHT22;2065;49.790;9.620;2023-05-17T15:40:31;21.70;29.10
4103;DHT22;2065;49.790;9.620;2023-05-17T15:42:58;21.60;29.30
4103;DHT22;2065;49.790;9.620;2023-05-17T15:45:25;21.70;29.30
4103;DHT22;2065;49.790;9.620;2023-05-17T15:47:52;21.70;28.50
4103;DHT22;2065;49.790;9.620;2023-05-17T15:50:22;21.50;29.30
4103;DHT22;2065;49.790;9.620;2023-05-17T15:52:49;21.70;29.40
4103;DHT22;2065;49.790;9.620;2023-05-17T15:55:16;21.80;28.80
4103;DHT22;2065;49.790;9.620;2023-05-17T15:57:44;21.40;28.80
4103;DHT22;2065;49.790;9.620;2023-05-17T16:00:11;21.50;29.60
4103;DHT22;2065;49.790;9.620;2023-05-17T16:02:39;21.70;30.10
4103;DHT22;2065;49.790;9.620;2023-05-17T16:05:06;21.70;30.10
4103;DHT22;2065;49.790;9.620;2023-05-17T16:07:35;21.60;29.30
4103;DHT22;2065;49.790;9.620;2023-05-17T16:10:02;21.30;29.80
4103;DHT22;2065;49.790;9.620;2023-05-17T16:12:29;21.40;29.80